createdAt,value
2017-04-24T00:00:48.253Z,94.50
2017-04-24T00:01:52.617Z,93.50
2017-04-24T00:02:56.492Z,95.30
2017-04-24T00:04:00.538Z,92.60
2017-04-24T00:05:04.770Z,92.70
2017-04-24T00:06:09.801Z,94.00
2017-04-24T00:07:14.159Z,92.80
2017-04-24T00:08:18.098Z,94.20
2017-04-24T00:09:22.426Z,93.50
2017-04-24T00:10:26.819Z,95.20
2017-04-24T00:11:30.815Z,93.00
2017-04-24T00:12:39.250Z,94.40
2017-04-24T00:13:44.734Z,94.50
2017-04-24T00:14:48.846Z,97.30
2017-04-24T00:15:53.159Z,94.90
2017-04-24T00:16:58.699Z,92.30
2017-04-24T00:18:03.463Z,91.60
2017-04-24T00:19:09.871Z,91.70
2017-04-24T00:20:14.287Z,91.00
2017-04-24T00:21:19.072Z,90.30
2017-04-24T00:22:24.020Z,89.10
2017-04-24T00:23:27.996Z,92.70
2017-04-24T00:24:32.530Z,91.10
2017-04-24T00:25:37.734Z,90.50
2017-04-24T00:26:42.954Z,91.40
2017-04-24T00:27:47.080Z,90.50
2017-04-24T00:28:51.058Z,90.30
2017-04-24T00:29:54.886Z,89.10
2017-04-24T00:30:59.105Z,89.70
2017-04-24T00:32:04.452Z,88.40
2017-04-24T00:33:08.679Z,88.80
2017-04-24T00:34:12.678Z,89.10
2017-04-24T00:35:18.836Z,88.60
2017-04-24T00:36:23.018Z,89.90
2017-04-24T00:37:26.647Z,90.90
2017-04-24T00:38:30.798Z,90.40
2017-04-24T00:39:34.866Z,89.30
2017-04-24T00:40:39.267Z,88.20
2017-04-24T00:41:43.771Z,88.10
2017-04-24T00:42:47.837Z,89.00
2017-04-24T00:43:52.240Z,84.20
2017-04-24T00:44:57.119Z,86.50
2017-04-24T00:46:01.235Z,90.30
2017-04-24T00:47:06.404Z,84.50
2017-04-24T00:48:11.621Z,89.50
2017-04-24T00:49:15.632Z,80.80
2017-04-24T00:50:19.793Z,82.10
2017-04-24T00:51:23.658Z,86.00
2017-04-24T00:52:27.730Z,82.80
2017-04-24T00:53:34.139Z,90.40
2017-04-24T00:54:40.574Z,86.20
2017-04-24T00:55:44.478Z,85.70
2017-04-24T00:56:48.233Z,85.20
2017-04-24T00:57:52.421Z,84.60
2017-04-24T00:58:57.343Z,83.20
2017-04-24T01:00:01.851Z,90.50
2017-04-24T01:01:06.015Z,90.10
2017-04-24T01:02:10.690Z,84.60
2017-04-24T01:03:14.997Z,87.20
2017-04-24T01:04:19.059Z,89.40
2017-04-24T01:05:23.064Z,88.00
2017-04-24T01:06:27.015Z,90.40
2017-04-24T01:07:31.106Z,84.80
2017-04-24T01:08:35.398Z,84.10
2017-04-24T01:09:39.854Z,87.30
2017-04-24T01:10:44.459Z,88.90
2017-04-24T01:11:48.308Z,85.00
2017-04-24T01:12:52.427Z,86.20
2017-04-24T01:13:56.834Z,85.60
2017-04-24T01:15:00.769Z,90.90
2017-04-24T01:16:05.132Z,88.60
2017-04-24T01:17:11.167Z,90.00
2017-04-24T01:18:15.283Z,90.20
2017-04-24T01:19:20.573Z,87.70
2017-04-24T01:20:24.569Z,91.00
2017-04-24T01:21:28.959Z,88.40
2017-04-24T01:22:33.069Z,91.40
2017-04-24T01:23:37.071Z,90.20
2017-04-24T01:24:41.371Z,91.20
2017-04-24T01:25:45.666Z,91.80
2017-04-24T01:26:52.382Z,92.20
2017-04-24T01:27:56.527Z,92.60
2017-04-24T01:29:00.944Z,92.30
2017-04-24T01:30:06.221Z,96.10
2017-04-24T01:31:10.684Z,94.40
2017-04-24T01:32:15.591Z,94.00
2017-04-24T01:33:19.643Z,93.30
2017-04-24T01:34:23.482Z,94.20
2017-04-24T01:35:28.414Z,94.10
2017-04-24T01:36:32.620Z,95.30
2017-04-24T01:37:36.905Z,96.00
2017-04-24T01:38:40.946Z,92.60
2017-04-24T01:39:44.661Z,94.00
2017-04-24T01:40:48.775Z,93.20
2017-04-24T01:41:53.108Z,92.20
2017-04-24T01:42:56.651Z,95.00
2017-04-24T01:44:00.937Z,93.30
2017-04-24T01:45:06.415Z,93.70
2017-04-24T01:46:12.324Z,94.80
2017-04-24T01:47:16.224Z,93.80
2017-04-24T01:48:20.497Z,94.90
2017-04-24T01:49:24.925Z,94.00
2017-04-24T01:50:28.634Z,94.50
2017-04-24T01:51:32.513Z,95.70
2017-04-24T01:52:37.741Z,95.30
2017-04-24T01:53:44.034Z,96.60
2017-04-24T01:54:48.031Z,96.30
2017-04-24T01:55:51.831Z,97.40
2017-04-24T01:56:56.047Z,99.80
2017-04-24T01:58:00.192Z,97.70
2017-04-24T01:59:04.119Z,97.80
2017-04-24T02:00:08.194Z,99.80
2017-04-24T02:01:12.462Z,99.60
2017-04-24T02:02:17.273Z,99.50
2017-04-24T02:03:21.180Z,99.60
2017-04-24T02:04:25.487Z,99.90
2017-04-24T02:05:30.228Z,99.60
2017-04-24T02:06:34.082Z,98.60
2017-04-24T02:07:38.395Z,99.90
2017-04-24T02:08:42.228Z,99.90
2017-04-24T02:09:46.695Z,99.90
2017-04-24T02:10:50.594Z,99.90
2017-04-24T02:11:54.754Z,99.90
2017-04-24T02:12:59.021Z,99.90
2017-04-24T02:14:03.227Z,99.90
2017-04-24T02:15:07.211Z,99.90
2017-04-24T02:16:11.285Z,99.90
2017-04-24T02:17:15.400Z,99.90
2017-04-24T02:18:20.639Z,97.60
2017-04-24T02:19:25.825Z,98.80
2017-04-24T02:20:30.257Z,98.90
2017-04-24T02:21:34.022Z,98.70
2017-04-24T02:22:37.764Z,99.90
2017-04-24T02:23:41.932Z,99.90
2017-04-24T02:24:46.092Z,99.90
2017-04-24T02:25:49.850Z,99.50
2017-04-24T02:26:54.005Z,99.60
2017-04-24T02:27:58.371Z,99.80
2017-04-24T02:29:02.459Z,99.20
2017-04-24T02:30:08.456Z,98.00
2017-04-24T02:31:13.549Z,99.90
2017-04-24T02:32:17.544Z,97.40
2017-04-24T02:33:21.651Z,97.80
2017-04-24T02:34:25.966Z,98.80
2017-04-24T02:35:30.781Z,99.10
2017-04-24T02:36:34.642Z,99.90
2017-04-24T02:37:39.107Z,99.20
2017-04-24T02:38:44.288Z,99.90
2017-04-24T02:39:48.591Z,99.90
2017-04-24T02:40:52.274Z,99.90
2017-04-24T02:41:56.510Z,99.90
2017-04-24T02:43:01.596Z,99.90
2017-04-24T02:44:05.866Z,99.90
2017-04-24T02:45:13.772Z,99.90
2017-04-24T02:46:18.201Z,99.90
2017-04-24T02:47:22.007Z,99.90
2017-04-24T02:48:26.227Z,99.20
2017-04-24T02:49:31.493Z,99.90
2017-04-24T02:50:37.116Z,99.90
2017-04-24T02:51:42.655Z,98.80
2017-04-24T02:52:46.836Z,99.50
2017-04-24T02:53:50.732Z,99.10
2017-04-24T02:54:55.010Z,99.00
2017-04-24T02:55:59.001Z,99.10
2017-04-24T02:57:03.104Z,98.80
2017-04-24T02:58:07.134Z,98.90
2017-04-24T02:59:13.041Z,98.80
2017-04-24T03:00:18.887Z,98.50
2017-04-24T03:01:23.079Z,98.50
2017-04-24T03:02:27.739Z,98.80
2017-04-24T03:03:33.642Z,99.30
2017-04-24T03:04:38.172Z,99.40
2017-04-24T03:05:41.796Z,99.50
2017-04-24T03:06:45.894Z,99.50
2017-04-24T03:07:49.981Z,98.80
2017-04-24T03:08:54.240Z,99.50
2017-04-24T03:09:59.031Z,99.40
2017-04-24T03:11:02.818Z,99.70
2017-04-24T03:12:06.780Z,99.30
2017-04-24T03:13:10.673Z,99.60
2017-04-24T03:14:15.128Z,99.90
2017-04-24T03:15:19.158Z,99.40
2017-04-24T03:16:22.974Z,99.30
2017-04-24T03:17:26.932Z,99.60
2017-04-24T03:18:33.045Z,99.20
2017-04-24T03:19:37.093Z,99.10
2017-04-24T03:20:41.714Z,97.40
2017-04-24T03:21:46.159Z,97.60
2017-04-24T03:22:50.255Z,97.80
2017-04-24T03:23:54.396Z,99.00
2017-04-24T03:24:58.637Z,98.80
2017-04-24T03:26:02.519Z,98.90
2017-04-24T03:27:06.723Z,99.40
2017-04-24T03:28:10.769Z,99.40
2017-04-24T03:29:14.851Z,99.50
2017-04-24T03:30:19.836Z,99.60
2017-04-24T03:31:24.868Z,99.70
2017-04-24T03:32:30.548Z,99.90
2017-04-24T03:33:34.627Z,99.90
2017-04-24T03:34:40.822Z,99.00
2017-04-24T03:35:45.707Z,98.70
2017-04-24T03:36:49.786Z,99.00
2017-04-24T03:37:54.078Z,99.00
2017-04-24T03:38:59.214Z,99.00
2017-04-24T03:40:03.824Z,99.70
2017-04-24T03:41:07.958Z,99.80
2017-04-24T03:42:11.883Z,99.90
2017-04-24T03:43:15.665Z,99.90
2017-04-24T03:44:19.602Z,98.10
2017-04-24T03:45:24.717Z,97.10
2017-04-24T03:46:29.664Z,97.00
2017-04-24T03:47:34.126Z,97.70
2017-04-24T03:48:38.398Z,97.90
2017-04-24T03:49:42.063Z,99.00
2017-04-24T03:50:46.141Z,97.90
2017-04-24T03:51:50.185Z,98.50
2017-04-24T03:52:54.290Z,99.90
2017-04-24T03:53:59.217Z,99.40
2017-04-24T03:55:03.497Z,99.90
2017-04-24T03:56:07.142Z,99.90
2017-04-24T03:57:11.941Z,99.30
2017-04-24T03:58:15.393Z,99.90
2017-04-24T03:59:19.426Z,99.90
2017-04-24T04:00:24.506Z,99.80
2017-04-24T04:01:28.593Z,99.90
2017-04-24T04:02:32.758Z,99.90
2017-04-24T04:03:37.001Z,99.90
2017-04-24T04:04:40.727Z,98.90
2017-04-24T04:05:44.933Z,99.70
2017-04-24T04:06:49.006Z,99.70
2017-04-24T04:07:53.005Z,99.90
2017-04-24T04:08:56.979Z,99.90
2017-04-24T04:10:01.952Z,99.90
2017-04-24T04:11:06.125Z,99.90
2017-04-24T04:12:09.841Z,99.90
2017-04-24T04:13:13.908Z,99.90
2017-04-24T04:14:18.616Z,99.90
2017-04-24T04:15:22.489Z,99.90
2017-04-24T04:16:27.101Z,99.90
2017-04-24T04:17:30.753Z,99.90
2017-04-24T04:18:36.185Z,99.90
2017-04-24T04:19:40.016Z,99.90
2017-04-24T04:20:43.701Z,99.90
2017-04-24T04:21:48.092Z,99.90
2017-04-24T04:22:52.086Z,99.90
2017-04-24T04:23:56.375Z,99.90
2017-04-24T04:25:00.433Z,99.90
2017-04-24T04:26:04.463Z,99.90
2017-04-24T04:27:09.198Z,99.90
2017-04-24T04:28:13.288Z,99.90
2017-04-24T04:29:18.156Z,99.90
2017-04-24T04:30:22.209Z,99.90
2017-04-24T04:31:26.192Z,99.90
2017-04-24T04:32:30.277Z,99.90
2017-04-24T04:33:34.585Z,99.90
2017-04-24T04:34:38.689Z,99.90
2017-04-24T04:35:42.679Z,99.90
2017-04-24T04:36:46.784Z,99.90
2017-04-24T04:37:50.827Z,99.90
2017-04-24T04:38:54.986Z,99.90
2017-04-24T04:39:59.190Z,99.90
2017-04-24T04:41:02.966Z,99.90
2017-04-24T04:42:06.710Z,99.90
2017-04-24T04:43:10.804Z,99.90
2017-04-24T04:44:14.602Z,99.90
2017-04-24T04:45:19.270Z,99.90
2017-04-24T04:46:24.571Z,99.90
2017-04-24T04:47:28.418Z,99.90
2017-04-24T04:48:32.359Z,99.90
2017-04-24T04:49:36.303Z,99.90
2017-04-24T04:50:40.215Z,99.90
2017-04-24T04:51:44.115Z,99.90
2017-04-24T04:52:48.216Z,99.90
2017-04-24T04:53:51.936Z,99.90
2017-04-24T04:54:56.008Z,99.90
2017-04-24T04:55:59.981Z,99.90
2017-04-24T04:57:04.279Z,99.90
2017-04-24T04:58:08.011Z,99.90
2017-04-24T04:59:12.236Z,99.90
2017-04-24T05:00:16.261Z,99.90
2017-04-24T05:01:20.721Z,99.90
2017-04-24T05:02:24.898Z,99.90
2017-04-24T05:03:29.081Z,99.90
2017-04-24T05:04:32.840Z,99.90
2017-04-24T05:05:37.047Z,99.90
2017-04-24T05:06:41.210Z,99.90
2017-04-24T05:07:45.289Z,99.90
2017-04-24T05:08:48.707Z,99.90
2017-04-24T05:09:53.108Z,99.90
2017-04-24T05:10:58.150Z,99.90
2017-04-24T05:12:01.876Z,99.90
2017-04-24T05:13:06.325Z,99.90
2017-04-24T05:14:10.898Z,99.90
2017-04-24T05:15:15.062Z,99.90
2017-04-24T05:16:18.463Z,99.90
2017-04-24T05:17:22.801Z,99.90
2017-04-24T05:18:26.728Z,99.90
2017-04-24T05:19:30.378Z,99.90
2017-04-24T05:20:34.677Z,99.90
2017-04-24T05:21:38.984Z,99.90
2017-04-24T05:22:43.390Z,99.90
2017-04-24T05:23:47.587Z,99.90
2017-04-24T05:24:51.860Z,99.90
2017-04-24T05:25:55.695Z,99.90
2017-04-24T05:26:59.592Z,99.90
2017-04-24T05:28:03.683Z,99.90
2017-04-24T05:29:07.707Z,99.90
2017-04-24T05:30:11.701Z,99.90
2017-04-24T05:31:15.470Z,99.90
2017-04-24T05:32:19.509Z,99.90
2017-04-24T05:33:23.267Z,99.90
2017-04-24T05:34:27.311Z,99.90
2017-04-24T05:35:31.402Z,99.90
2017-04-24T05:36:35.600Z,99.90
2017-04-24T05:37:39.721Z,99.90
2017-04-24T05:38:43.811Z,99.90
2017-04-24T05:39:47.592Z,99.90
2017-04-24T05:40:51.613Z,99.90
2017-04-24T05:41:55.371Z,99.90
2017-04-24T05:42:59.579Z,99.90
2017-04-24T05:44:03.481Z,99.90
2017-04-24T05:45:07.355Z,99.90
2017-04-24T05:46:12.287Z,99.90
2017-04-24T05:47:16.358Z,99.90
2017-04-24T05:48:20.505Z,99.90
2017-04-24T05:49:24.319Z,99.90
2017-04-24T05:50:28.181Z,99.90
2017-04-24T05:51:32.043Z,99.90
2017-04-24T05:52:35.941Z,99.90
2017-04-24T05:53:40.012Z,99.90
2017-04-24T05:54:44.201Z,99.90
2017-04-24T05:55:48.118Z,99.90
2017-04-24T05:56:53.102Z,99.90
2017-04-24T05:57:56.989Z,99.90
2017-04-24T05:59:00.843Z,99.90
2017-04-24T06:00:05.113Z,99.90
2017-04-24T06:01:09.367Z,99.90
2017-04-24T06:02:13.457Z,99.90
2017-04-24T06:03:17.640Z,99.90
2017-04-24T06:04:21.560Z,99.90
2017-04-24T06:05:25.662Z,99.90
2017-04-24T06:06:29.656Z,99.90
2017-04-24T06:07:33.474Z,99.90
2017-04-24T06:08:37.615Z,99.90
2017-04-24T06:09:41.539Z,99.90
2017-04-24T06:10:45.298Z,99.90
2017-04-24T06:11:49.314Z,99.90
2017-04-24T06:12:53.501Z,99.90
2017-04-24T06:13:57.587Z,99.90
2017-04-24T06:15:01.584Z,99.90
2017-04-24T06:16:05.644Z,99.90
2017-04-24T06:17:09.874Z,99.90
2017-04-24T06:18:13.688Z,99.90
2017-04-24T06:19:17.964Z,99.90
2017-04-24T06:20:22.171Z,99.90
2017-04-24T06:21:25.779Z,99.90
2017-04-24T06:22:29.628Z,99.90
2017-04-24T06:23:33.665Z,99.90
2017-04-24T06:24:37.635Z,99.90
2017-04-24T06:25:42.488Z,99.90
2017-04-24T06:26:46.632Z,99.90
2017-04-24T06:27:50.680Z,99.90
2017-04-24T06:28:54.636Z,99.90
2017-04-24T06:29:58.911Z,99.90
2017-04-24T06:31:02.615Z,99.90
2017-04-24T06:32:06.517Z,99.90
2017-04-24T06:33:10.674Z,99.90
2017-04-24T06:34:14.830Z,99.90
2017-04-24T06:35:19.108Z,99.90
2017-04-24T06:36:22.411Z,99.90
2017-04-24T06:37:25.834Z,99.90
2017-04-24T06:38:29.233Z,99.90
2017-04-24T06:39:32.571Z,99.90
2017-04-24T06:40:36.475Z,99.90
2017-04-24T06:41:40.422Z,99.90
2017-04-24T06:42:45.925Z,99.90
2017-04-24T06:43:49.715Z,99.90
2017-04-24T06:44:53.295Z,99.90
2017-04-24T06:45:57.273Z,99.90
2017-04-24T06:47:02.630Z,99.90
2017-04-24T06:48:06.856Z,99.90
2017-04-24T06:49:10.727Z,99.90
2017-04-24T06:50:14.969Z,99.90
2017-04-24T06:51:19.324Z,99.90
2017-04-24T06:52:23.380Z,99.90
2017-04-24T06:53:27.363Z,99.90
2017-04-24T06:54:31.138Z,99.90
2017-04-24T06:55:35.046Z,99.90
2017-04-24T06:56:39.213Z,99.90
2017-04-24T06:57:42.958Z,99.90
2017-04-24T06:58:47.041Z,99.90
2017-04-24T06:59:51.041Z,99.90
2017-04-24T07:00:55.110Z,99.90
2017-04-24T07:01:58.869Z,99.90
2017-04-24T07:03:11.437Z,99.90
2017-04-24T07:04:15.326Z,99.90
2017-04-24T07:05:20.236Z,99.90
2017-04-24T07:06:24.487Z,99.90
2017-04-24T07:07:28.317Z,99.90
2017-04-24T07:08:32.871Z,99.90
2017-04-24T07:09:36.876Z,99.90
2017-04-24T07:10:41.143Z,99.90
2017-04-24T07:11:46.361Z,99.90
2017-04-24T07:12:50.131Z,99.90
2017-04-24T07:13:54.332Z,99.90
2017-04-24T07:14:58.927Z,99.90
2017-04-24T07:16:02.606Z,99.90
2017-04-24T07:17:06.893Z,99.90
2017-04-24T07:18:10.932Z,99.90
2017-04-24T07:19:15.078Z,99.90
2017-04-24T07:20:19.230Z,99.90
2017-04-24T07:21:23.342Z,99.90
2017-04-24T07:22:27.178Z,99.90
2017-04-24T07:23:31.030Z,99.90
2017-04-24T07:24:34.915Z,99.90
2017-04-24T07:25:39.670Z,99.90
2017-04-24T07:26:43.716Z,99.90
2017-04-24T07:27:47.548Z,99.90
2017-04-24T07:28:51.696Z,99.90
2017-04-24T07:29:55.528Z,99.90
2017-04-24T07:30:59.666Z,99.90
2017-04-24T07:32:03.635Z,99.90
2017-04-24T07:33:07.725Z,99.90
2017-04-24T07:34:11.683Z,99.90
2017-04-24T07:35:15.778Z,99.90
2017-04-24T07:36:19.198Z,99.90
2017-04-24T07:37:23.242Z,99.90
2017-04-24T07:38:27.274Z,99.90
2017-04-24T07:39:31.161Z,99.90
2017-04-24T07:40:34.829Z,99.90
2017-04-24T07:41:38.899Z,99.90
2017-04-24T07:42:42.533Z,99.90
2017-04-24T07:43:46.953Z,99.90
2017-04-24T07:44:51.699Z,99.90
2017-04-24T07:45:55.736Z,99.90
2017-04-24T07:46:59.733Z,99.90
2017-04-24T07:48:04.390Z,99.90
2017-04-24T07:49:08.383Z,99.90
2017-04-24T07:50:12.619Z,99.90
2017-04-24T07:51:16.385Z,99.90
2017-04-24T07:52:20.246Z,99.90
2017-04-24T07:53:25.136Z,99.90
2017-04-24T07:54:29.301Z,99.90
2017-04-24T07:55:33.506Z,99.90
2017-04-24T07:56:38.349Z,99.90
2017-04-24T07:57:41.780Z,99.90
2017-04-24T07:58:45.823Z,99.90
2017-04-24T07:59:49.543Z,99.90
2017-04-24T08:00:53.581Z,99.90
2017-04-24T08:01:57.296Z,99.90
2017-04-24T08:03:00.834Z,99.90
2017-04-24T08:04:04.767Z,99.90
2017-04-24T08:05:08.569Z,99.90
2017-04-24T08:06:13.507Z,99.90
2017-04-24T08:07:17.751Z,99.90
2017-04-24T08:08:21.999Z,99.90
2017-04-24T08:09:26.084Z,99.90
2017-04-24T08:10:30.133Z,99.90
2017-04-24T08:11:34.231Z,99.90
2017-04-24T08:12:38.214Z,99.90
2017-04-24T08:13:41.846Z,99.90
2017-04-24T08:14:46.290Z,99.90
2017-04-24T08:15:50.197Z,99.90
2017-04-24T08:16:54.248Z,99.90
2017-04-24T08:17:58.036Z,99.90
2017-04-24T08:19:02.119Z,99.90
2017-04-24T08:20:05.955Z,99.90
2017-04-24T08:21:09.870Z,99.90
2017-04-24T08:22:13.789Z,99.90
2017-04-24T08:23:18.087Z,99.90
2017-04-24T08:24:21.952Z,99.90
2017-04-24T08:25:26.276Z,99.90
2017-04-24T08:26:30.074Z,99.90
2017-04-24T08:27:33.950Z,99.90
2017-04-24T08:28:37.906Z,99.90
2017-04-24T08:29:41.971Z,99.90
2017-04-24T08:30:46.012Z,99.90
2017-04-24T08:31:50.212Z,99.90
2017-04-24T08:32:54.410Z,99.90
2017-04-24T08:33:58.437Z,99.90
2017-04-24T08:35:02.496Z,99.90
2017-04-24T08:36:06.356Z,99.90
2017-04-24T08:37:10.618Z,99.90
2017-04-24T08:38:14.641Z,99.90
2017-04-24T08:39:18.568Z,99.90
2017-04-24T08:40:22.484Z,99.90
2017-04-24T08:41:27.471Z,99.90
2017-04-24T08:42:31.462Z,99.90
2017-04-24T08:43:35.489Z,99.90
2017-04-24T08:44:39.743Z,99.90
2017-04-24T08:45:44.125Z,99.90
2017-04-24T08:46:47.993Z,99.90
2017-04-24T08:47:52.728Z,99.90
2017-04-24T08:48:56.753Z,99.90
2017-04-24T08:50:00.957Z,99.90
2017-04-24T08:51:05.166Z,99.90
2017-04-24T08:52:08.972Z,99.90
2017-04-24T08:53:12.777Z,99.90
2017-04-24T08:54:16.677Z,99.90
2017-04-24T08:55:20.561Z,99.90
2017-04-24T08:56:24.751Z,99.90
2017-04-24T08:57:29.148Z,99.90
2017-04-24T08:58:32.809Z,99.90
2017-04-24T08:59:36.812Z,99.90
2017-04-24T09:00:40.697Z,99.90
2017-04-24T09:01:44.729Z,99.90
2017-04-24T09:02:48.778Z,99.90
2017-04-24T09:03:52.606Z,99.90
2017-04-24T09:04:56.576Z,99.90
2017-04-24T09:06:01.074Z,99.90
2017-04-24T09:07:05.328Z,99.90
2017-04-24T09:08:09.566Z,99.90
2017-04-24T09:09:13.574Z,99.90
2017-04-24T09:10:17.776Z,99.90
2017-04-24T09:11:22.113Z,99.90
2017-04-24T09:12:26.153Z,99.90
2017-04-24T09:13:29.992Z,99.90
2017-04-24T09:14:34.119Z,99.90
2017-04-24T09:15:38.101Z,99.90
2017-04-24T09:16:41.970Z,99.90
2017-04-24T09:17:46.079Z,99.90
2017-04-24T09:18:50.018Z,99.90
2017-04-24T09:19:54.091Z,99.90
2017-04-24T09:20:58.286Z,99.90
2017-04-24T09:22:02.133Z,99.90
2017-04-24T09:23:07.227Z,99.90
2017-04-24T09:24:11.333Z,99.90
2017-04-24T09:25:15.450Z,99.90
2017-04-24T09:26:19.597Z,99.90
2017-04-24T09:27:23.851Z,99.90
2017-04-24T09:28:27.873Z,99.90
2017-04-24T09:29:32.018Z,99.90
2017-04-24T09:30:36.234Z,99.90
2017-04-24T09:31:40.184Z,99.90
2017-04-24T09:32:44.021Z,99.90
2017-04-24T09:33:48.108Z,99.90
2017-04-24T09:34:52.017Z,99.90
2017-04-24T09:35:56.078Z,99.90
2017-04-24T09:36:59.907Z,99.90
2017-04-24T09:38:04.366Z,99.90
2017-04-24T09:39:08.963Z,99.90
2017-04-24T09:40:13.096Z,99.90
2017-04-24T09:41:17.743Z,99.90
2017-04-24T09:42:22.109Z,99.90
2017-04-24T09:43:25.893Z,99.90
2017-04-24T09:44:30.255Z,99.90
2017-04-24T09:45:34.113Z,99.90
2017-04-24T09:46:38.394Z,99.90
2017-04-24T09:47:42.525Z,99.90
2017-04-24T09:48:47.327Z,99.90
2017-04-24T09:49:51.254Z,99.90
2017-04-24T09:50:54.965Z,99.90
2017-04-24T09:51:58.579Z,99.90
2017-04-24T09:53:02.815Z,99.90
2017-04-24T09:54:06.998Z,99.90
2017-04-24T09:55:11.176Z,99.90
2017-04-24T09:56:15.414Z,99.90
2017-04-24T09:57:19.384Z,99.90
2017-04-24T09:58:24.367Z,99.90
2017-04-24T09:59:28.265Z,99.90
2017-04-24T10:00:32.215Z,99.90
2017-04-24T10:01:36.076Z,99.90
2017-04-24T10:02:40.316Z,99.90
2017-04-24T10:03:44.177Z,99.90
2017-04-24T10:05:02.624Z,99.90
2017-04-24T10:06:07.490Z,99.90
2017-04-24T10:07:11.358Z,99.90
2017-04-24T10:08:15.479Z,99.90
2017-04-24T10:09:19.793Z,99.90
2017-04-24T10:10:23.703Z,99.90
2017-04-24T10:11:27.454Z,99.90
2017-04-24T10:12:31.549Z,99.90
2017-04-24T10:13:35.470Z,99.90
2017-04-24T10:14:39.652Z,99.90
2017-04-24T10:15:43.257Z,99.90
2017-04-24T10:16:47.352Z,99.90
2017-04-24T10:17:52.196Z,99.90
2017-04-24T10:18:56.151Z,99.90
2017-04-24T10:20:00.087Z,99.90
2017-04-24T10:21:03.942Z,99.90
2017-04-24T10:22:07.813Z,99.90
2017-04-24T10:23:11.468Z,99.90
2017-04-24T10:24:15.589Z,99.90
2017-04-24T10:25:19.901Z,99.90
2017-04-24T10:26:23.982Z,99.90
2017-04-24T10:27:28.771Z,99.90
2017-04-24T10:28:32.781Z,99.90
2017-04-24T10:29:36.637Z,99.90
2017-04-24T10:30:40.479Z,99.90
2017-04-24T10:31:44.454Z,99.90
2017-04-24T10:32:48.290Z,99.90
2017-04-24T10:33:53.012Z,99.90
2017-04-24T10:34:57.094Z,99.90
2017-04-24T10:36:02.067Z,99.90
2017-04-24T10:37:06.085Z,99.90
2017-04-24T10:38:09.947Z,99.90
2017-04-24T10:39:13.911Z,99.90
2017-04-24T10:40:17.930Z,99.90
2017-04-24T10:41:22.033Z,99.90
2017-04-24T10:42:26.267Z,99.90
2017-04-24T10:43:29.926Z,99.90
2017-04-24T10:44:33.813Z,99.90
2017-04-24T10:45:37.799Z,99.90
2017-04-24T10:46:41.868Z,99.90
2017-04-24T10:47:46.035Z,99.90
2017-04-24T10:48:51.193Z,99.90
2017-04-24T10:49:54.884Z,99.90
2017-04-24T10:50:58.980Z,99.90
2017-04-24T10:52:03.141Z,99.90
2017-04-24T10:53:07.438Z,99.90
2017-04-24T10:54:11.507Z,99.90
2017-04-24T10:55:15.557Z,99.90
2017-04-24T10:56:19.293Z,99.90
2017-04-24T10:57:23.413Z,99.90
2017-04-24T10:58:27.160Z,99.90
2017-04-24T10:59:30.979Z,99.90
2017-04-24T11:00:35.153Z,99.90
2017-04-24T11:01:39.149Z,99.90
2017-04-24T11:02:42.866Z,99.90
2017-04-24T11:03:46.964Z,99.90
2017-04-24T11:04:50.983Z,99.90
2017-04-24T11:05:55.156Z,99.90
2017-04-24T11:06:59.288Z,99.90
2017-04-24T11:08:03.092Z,99.90
2017-04-24T11:09:07.172Z,99.90
2017-04-24T11:10:11.152Z,99.90
2017-04-24T11:11:15.267Z,99.90
2017-04-24T11:12:19.466Z,99.90
2017-04-24T11:13:23.583Z,99.90
2017-04-24T11:14:28.473Z,99.90
2017-04-24T11:15:32.804Z,99.90
2017-04-24T11:16:36.829Z,99.90
2017-04-24T11:17:41.076Z,99.90
2017-04-24T11:18:44.975Z,99.90
2017-04-24T11:19:48.648Z,99.90
2017-04-24T11:20:52.663Z,99.90
2017-04-24T11:21:56.350Z,99.90
2017-04-24T11:23:00.481Z,99.90
2017-04-24T11:24:04.384Z,99.90
2017-04-24T11:25:08.444Z,99.90
2017-04-24T11:26:12.574Z,99.90
2017-04-24T11:27:16.717Z,99.90
2017-04-24T11:28:20.845Z,99.90
2017-04-24T11:29:24.918Z,99.90
2017-04-24T11:30:28.782Z,99.90
2017-04-24T11:31:32.851Z,99.90
2017-04-24T11:32:36.658Z,99.90
2017-04-24T11:33:40.565Z,99.90
2017-04-24T11:34:44.507Z,99.90
2017-04-24T11:35:48.894Z,99.90
2017-04-24T11:36:52.872Z,99.90
2017-04-24T11:37:56.990Z,99.90
2017-04-24T11:39:01.091Z,99.90
2017-04-24T11:40:05.443Z,99.90
2017-04-24T11:41:09.359Z,99.90
2017-04-24T11:42:13.190Z,99.90
2017-04-24T11:43:17.025Z,99.90
2017-04-24T11:44:21.365Z,99.90
2017-04-24T11:45:25.569Z,99.90
2017-04-24T11:46:29.752Z,99.90
2017-04-24T11:47:33.956Z,99.90
2017-04-24T11:48:38.137Z,99.90
2017-04-24T11:49:43.083Z,99.90
2017-04-24T11:50:47.565Z,99.90
2017-04-24T11:51:52.128Z,99.90
2017-04-24T11:53:00.030Z,99.90
2017-04-24T11:54:04.070Z,99.90
2017-04-24T11:55:08.262Z,99.90
2017-04-24T11:56:12.417Z,99.90
2017-04-24T11:57:16.097Z,99.90
2017-04-24T11:58:20.212Z,99.90
2017-04-24T11:59:24.271Z,99.90
2017-04-24T12:00:28.123Z,99.90
2017-04-24T12:01:31.910Z,99.90
2017-04-24T12:02:35.909Z,99.90
2017-04-24T12:03:40.084Z,99.90
2017-04-24T12:04:43.573Z,99.90
2017-04-24T12:05:47.789Z,99.90
2017-04-24T12:06:51.878Z,99.90
2017-04-24T12:07:55.751Z,99.90
2017-04-24T12:08:59.800Z,99.90
2017-04-24T12:10:03.964Z,99.90
2017-04-24T12:11:07.922Z,99.90
2017-04-24T12:12:12.176Z,99.90
2017-04-24T12:13:16.029Z,99.90
2017-04-24T12:14:20.060Z,99.90
2017-04-24T12:15:24.061Z,99.90
2017-04-24T12:16:28.193Z,99.90
2017-04-24T12:17:32.024Z,99.90
2017-04-24T12:18:36.242Z,99.90
2017-04-24T12:19:40.416Z,99.90
2017-04-24T12:20:43.912Z,99.90
2017-04-24T12:21:47.601Z,99.90
2017-04-24T12:22:51.489Z,99.90
2017-04-24T12:23:55.553Z,99.90
2017-04-24T12:24:59.547Z,99.90
2017-04-24T12:26:03.800Z,99.90
2017-04-24T12:27:07.814Z,99.90
2017-04-24T12:28:12.531Z,99.90
2017-04-24T12:29:16.336Z,99.90
2017-04-24T12:30:20.118Z,99.90
2017-04-24T12:31:25.154Z,99.90
2017-04-24T12:32:34.087Z,99.90
2017-04-24T12:33:38.206Z,99.90
2017-04-24T12:34:41.949Z,99.90
2017-04-24T12:35:45.776Z,99.90
2017-04-24T12:36:50.678Z,99.90
2017-04-24T12:37:54.562Z,99.90
2017-04-24T12:38:58.960Z,99.90
2017-04-24T12:40:03.144Z,99.90
2017-04-24T12:41:06.874Z,99.90
2017-04-24T12:42:10.608Z,99.90
2017-04-24T12:43:14.604Z,99.90
2017-04-24T12:44:18.813Z,99.90
2017-04-24T12:45:22.826Z,99.90
2017-04-24T12:46:27.048Z,99.90
2017-04-24T12:47:30.945Z,99.90
2017-04-24T12:48:34.785Z,99.90
2017-04-24T12:49:38.767Z,99.90
2017-04-24T12:50:44.118Z,99.90
2017-04-24T12:51:47.999Z,99.90
2017-04-24T12:52:52.169Z,99.90
2017-04-24T12:53:55.818Z,99.90
2017-04-24T12:55:00.043Z,99.90
2017-04-24T12:56:04.106Z,99.90
2017-04-24T12:57:07.978Z,99.90
2017-04-24T12:58:11.854Z,99.90
2017-04-24T12:59:15.877Z,99.90
2017-04-24T13:00:19.861Z,99.90
2017-04-24T13:01:23.971Z,99.90
2017-04-24T13:02:28.103Z,99.90
2017-04-24T13:03:32.161Z,99.90
2017-04-24T13:04:36.021Z,99.90
2017-04-24T13:05:40.081Z,99.90
2017-04-24T13:06:44.190Z,99.90
2017-04-24T13:07:48.162Z,99.90
2017-04-24T13:08:52.207Z,99.90
2017-04-24T13:09:56.520Z,99.90
2017-04-24T13:11:00.587Z,99.90
2017-04-24T13:12:05.073Z,99.90
2017-04-24T13:13:09.820Z,99.90
2017-04-24T13:14:13.597Z,99.90
2017-04-24T13:15:17.600Z,99.90
2017-04-24T13:16:21.564Z,99.90
2017-04-24T13:17:26.288Z,99.90
2017-04-24T13:18:30.278Z,99.90
2017-04-24T13:19:34.177Z,99.90
2017-04-24T13:20:39.252Z,99.90
2017-04-24T13:21:43.275Z,99.90
2017-04-24T13:22:47.054Z,99.90
2017-04-24T13:23:51.182Z,99.90
2017-04-24T13:24:55.484Z,99.90
2017-04-24T13:25:59.605Z,99.90
2017-04-24T13:27:04.806Z,99.90
2017-04-24T13:28:09.566Z,99.90
2017-04-24T13:29:13.711Z,99.90
2017-04-24T13:30:17.930Z,99.90
2017-04-24T13:31:22.243Z,99.90
2017-04-24T13:32:26.334Z,99.90
2017-04-24T13:33:30.332Z,99.90
2017-04-24T13:34:33.824Z,99.90
2017-04-24T13:35:37.766Z,99.90
2017-04-24T13:36:41.748Z,99.90
2017-04-24T13:37:45.728Z,99.90
2017-04-24T13:38:52.474Z,99.90
2017-04-24T13:39:56.740Z,99.90
2017-04-24T13:41:00.688Z,99.90
2017-04-24T13:42:04.658Z,99.90
2017-04-24T13:43:08.649Z,99.90
2017-04-24T13:44:12.924Z,99.90
2017-04-24T13:45:17.287Z,99.90
2017-04-24T13:46:21.128Z,99.90
2017-04-24T13:47:24.951Z,99.90